createdAt,value
2022-10-19T00:01:20.491Z,80.33
2022-10-19T00:06:26.137Z,80.22
2022-10-19T00:08:54.525Z,80.16
2022-10-19T00:11:23.826Z,80.11
2022-10-19T00:13:50.988Z,79.96
2022-10-19T00:16:18.961Z,79.94
2022-10-19T00:18:46.452Z,80.04
2022-10-19T00:21:16.751Z,79.95
2022-10-19T00:23:44.906Z,79.83
2022-10-19T00:26:12.878Z,79.76
2022-10-19T00:28:40.129Z,79.84
2022-10-19T00:31:11.507Z,79.92
2022-10-19T00:33:38.625Z,79.92
2022-10-19T00:36:06.857Z,79.78
2022-10-19T00:38:34.471Z,79.94
2022-10-19T00:41:01.925Z,79.95
2022-10-19T00:43:31.808Z,79.82
2022-10-19T00:45:59.358Z,79.71
2022-10-19T00:48:31.027Z,79.66
2022-10-19T00:51:00.866Z,79.70
2022-10-19T00:53:30.457Z,79.59
2022-10-19T00:55:58.561Z,79.61
2022-10-19T00:58:25.746Z,79.77
2022-10-19T01:00:52.832Z,79.83
2022-10-19T01:04:12.224Z,80.03
2022-10-19T01:06:40.737Z,80.22
2022-10-19T01:09:08.626Z,80.28
2022-10-19T01:11:44.883Z,80.52
2022-10-19T01:14:24.687Z,80.82
2022-10-19T01:16:57.574Z,80.92
2022-10-19T01:19:52.468Z,81.07
2022-10-19T01:22:36.448Z,81.23
2022-10-19T01:25:17.009Z,81.27
2022-10-19T01:28:11.014Z,81.42
2022-10-19T01:30:54.119Z,81.28
2022-10-19T01:33:32.088Z,81.39
2022-10-19T01:36:07.160Z,81.16
2022-10-19T01:38:39.335Z,81.22
2022-10-19T01:41:17.162Z,81.16
2022-10-19T01:43:48.284Z,81.15
2022-10-19T01:46:20.592Z,81.20
2022-10-19T01:48:57.948Z,81.15
2022-10-19T01:51:30.258Z,81.13
2022-10-19T01:54:02.303Z,80.99
2022-10-19T01:56:32.170Z,80.92
2022-10-19T01:59:03.816Z,81.05
2022-10-19T02:01:35.723Z,81.15
2022-10-19T02:04:04.651Z,80.95
2022-10-19T02:06:33.126Z,81.00
2022-10-19T02:09:00.206Z,80.95
2022-10-19T02:11:27.739Z,80.94
2022-10-19T02:14:00.423Z,80.92
2022-10-19T02:16:31.972Z,80.83
2022-10-19T02:19:01.480Z,80.87
2022-10-19T02:21:29.445Z,81.14
2022-10-19T02:23:56.596Z,81.33
2022-10-19T02:26:24.467Z,81.41
2022-10-19T02:28:52.258Z,81.35
2022-10-19T02:31:19.379Z,81.46
2022-10-19T02:33:46.532Z,81.24
2022-10-19T02:36:13.679Z,81.18
2022-10-19T02:38:41.733Z,81.15
2022-10-19T02:41:13.225Z,81.17
2022-10-19T02:43:43.929Z,81.37
2022-10-19T02:46:17.466Z,81.38
2022-10-19T02:48:45.461Z,81.31
2022-10-19T02:51:33.701Z,81.30
2022-10-19T02:54:04.188Z,81.49
2022-10-19T02:56:32.541Z,81.27
2022-10-19T02:58:59.547Z,81.35
2022-10-19T03:01:26.687Z,81.31
2022-10-19T03:03:53.834Z,81.35
2022-10-19T03:06:20.966Z,81.34
2022-10-19T03:08:48.082Z,81.50
2022-10-19T03:11:15.552Z,81.59
2022-10-19T03:13:44.002Z,81.62
2022-10-19T03:16:13.195Z,81.54
2022-10-19T03:18:40.647Z,81.58
2022-10-19T03:21:11.411Z,81.75
2022-10-19T03:23:39.050Z,81.60
2022-10-19T03:26:09.989Z,81.75
2022-10-19T03:28:39.335Z,81.70
2022-10-19T03:31:06.616Z,81.87
2022-10-19T03:33:33.784Z,81.88
2022-10-19T03:36:25.439Z,81.74
2022-10-19T03:38:54.761Z,81.71
2022-10-19T03:41:23.322Z,81.87
2022-10-19T03:43:50.700Z,81.85
2022-10-19T03:46:18.153Z,81.78
2022-10-19T03:48:45.902Z,81.65
2022-10-19T03:51:15.955Z,81.75
2022-10-19T03:53:43.298Z,81.76
2022-10-19T03:56:13.459Z,81.77
2022-10-19T03:58:42.691Z,81.75
2022-10-19T04:01:13.520Z,81.80
2022-10-19T04:03:40.866Z,81.75
2022-10-19T04:06:10.080Z,81.82
2022-10-19T04:08:37.663Z,81.99
2022-10-19T04:11:06.450Z,81.91
2022-10-19T04:13:34.986Z,81.80
2022-10-19T04:16:02.675Z,81.77
2022-10-19T04:18:29.700Z,81.75
2022-10-19T04:21:01.095Z,81.68
2022-10-19T04:23:30.323Z,81.69
2022-10-19T04:26:02.565Z,81.64
2022-10-19T04:28:29.731Z,81.34
2022-10-19T04:30:59.253Z,81.42
2022-10-19T04:33:26.318Z,81.28
2022-10-19T04:35:59.355Z,81.22
2022-10-19T04:38:26.504Z,81.18
2022-10-19T04:40:53.500Z,81.11
2022-10-19T04:43:20.567Z,81.20
2022-10-19T04:45:47.664Z,81.15
2022-10-19T04:48:15.281Z,80.96
2022-10-19T04:50:44.477Z,80.90
2022-10-19T04:53:20.132Z,80.91
2022-10-19T04:55:47.225Z,80.90
2022-10-19T04:58:14.290Z,80.76
2022-10-19T05:00:41.902Z,80.62
2022-10-19T05:03:08.960Z,80.66
2022-10-19T05:05:37.306Z,80.59
2022-10-19T05:08:04.988Z,80.57
2022-10-19T05:10:31.943Z,80.56
2022-10-19T05:12:58.912Z,80.49
2022-10-19T05:15:26.081Z,80.51
2022-10-19T05:17:53.039Z,80.59
2022-10-19T05:20:20.321Z,80.47
2022-10-19T05:22:47.292Z,80.31
2022-10-19T05:25:14.325Z,80.19
2022-10-19T05:27:42.005Z,79.97
2022-10-19T05:30:11.052Z,79.87
2022-10-19T05:32:38.411Z,79.74
2022-10-19T05:35:06.024Z,79.72
2022-10-19T05:37:33.289Z,79.62
2022-10-19T05:40:00.470Z,79.67
2022-10-19T05:42:27.467Z,79.35
2022-10-19T05:44:54.455Z,79.30
2022-10-19T05:47:21.507Z,79.05
2022-10-19T05:49:48.708Z,79.17
2022-10-19T05:52:17.768Z,79.11
2022-10-19T05:54:44.802Z,78.82
2022-10-19T05:57:12.071Z,78.73
2022-10-19T05:59:39.334Z,78.61
2022-10-19T06:02:06.700Z,78.56
2022-10-19T06:04:34.228Z,78.60
2022-10-19T06:07:01.895Z,78.37
2022-10-19T06:09:28.959Z,78.39
2022-10-19T06:11:55.996Z,78.18
2022-10-19T06:14:23.001Z,78.13
2022-10-19T06:16:50.019Z,78.12
2022-10-19T06:19:17.168Z,77.99
2022-10-19T06:21:45.989Z,77.84
2022-10-19T06:24:14.675Z,77.64
2022-10-19T06:26:42.276Z,77.20
2022-10-19T06:29:09.511Z,76.93
2022-10-19T06:31:38.471Z,76.67
2022-10-19T06:34:05.991Z,76.73
2022-10-19T06:36:33.896Z,76.53
2022-10-19T06:39:02.075Z,76.74
2022-10-19T06:41:29.872Z,76.90
2022-10-19T06:44:02.604Z,76.81
2022-10-19T06:46:30.424Z,77.02
2022-10-19T06:48:59.213Z,77.22
2022-10-19T06:51:28.647Z,77.23
2022-10-19T06:53:57.058Z,77.02
2022-10-19T06:56:25.430Z,76.99
2022-10-19T06:58:52.758Z,76.95
2022-10-19T07:01:20.191Z,76.97
2022-10-19T07:03:49.868Z,76.68
2022-10-19T07:06:16.905Z,76.53
2022-10-19T07:08:44.806Z,76.43
2022-10-19T07:11:15.895Z,76.69
2022-10-19T07:13:43.606Z,76.54
2022-10-19T07:16:16.180Z,76.51
2022-10-19T07:18:47.033Z,75.55
2022-10-19T07:21:15.669Z,75.23
2022-10-19T07:23:44.687Z,74.01
2022-10-19T07:26:15.177Z,72.87
2022-10-19T07:28:43.193Z,70.64
2022-10-19T07:31:12.410Z,68.63
2022-10-19T07:33:39.804Z,66.92
2022-10-19T07:36:09.403Z,65.00
2022-10-19T07:38:37.168Z,63.59
2022-10-19T07:41:06.552Z,62.57
2022-10-19T07:43:34.193Z,62.07
2022-10-19T07:46:07.468Z,61.62
2022-10-19T07:48:34.923Z,60.91
2022-10-19T07:51:04.291Z,60.90
2022-10-19T07:53:31.534Z,61.81
2022-10-19T07:56:03.795Z,61.99
2022-10-19T07:58:31.540Z,62.61
2022-10-19T08:01:04.232Z,63.17
2022-10-19T08:04:20.722Z,63.86
2022-10-19T08:06:20.165Z,64.31
2022-10-19T08:08:48.723Z,64.56
2022-10-19T08:11:18.428Z,65.15
2022-10-19T08:13:46.346Z,65.51
2022-10-19T08:16:25.957Z,65.99
2022-10-19T08:18:53.282Z,66.66
2022-10-19T08:21:20.459Z,67.26
2022-10-19T08:23:48.509Z,67.76
2022-10-19T08:26:15.612Z,68.42
2022-10-19T08:28:42.725Z,68.95
2022-10-19T08:31:18.389Z,69.36
2022-10-19T08:33:45.824Z,69.94
2022-10-19T08:36:15.052Z,70.61
2022-10-19T08:38:44.848Z,71.08
2022-10-19T08:41:28.449Z,71.67
2022-10-19T08:44:11.130Z,71.99
2022-10-19T08:46:45.871Z,72.37
2022-10-19T08:49:20.118Z,72.79
2022-10-19T08:51:50.261Z,73.34
2022-10-19T08:54:19.726Z,73.59
2022-10-19T08:56:55.486Z,73.93
2022-10-19T08:59:33.753Z,74.11
2022-10-19T09:02:05.571Z,74.26
2022-10-19T09:04:37.883Z,74.37
2022-10-19T09:07:23.955Z,74.23
2022-10-19T09:09:55.860Z,74.35
2022-10-19T09:12:33.242Z,74.74
2022-10-19T09:15:03.749Z,74.61
2022-10-19T09:17:32.328Z,74.54
2022-10-19T09:19:59.771Z,74.72
2022-10-19T09:22:30.640Z,74.58
2022-10-19T09:25:02.596Z,74.72
2022-10-19T09:27:36.840Z,74.86
2022-10-19T09:30:07.737Z,74.88
2022-10-19T09:32:37.677Z,74.91
2022-10-19T09:35:07.794Z,74.90
2022-10-19T09:37:42.811Z,74.62
2022-10-19T09:40:18.852Z,74.66
2022-10-19T09:42:46.044Z,74.70
2022-10-19T09:45:19.240Z,74.56
2022-10-19T09:47:49.695Z,74.71
2022-10-19T09:50:22.675Z,74.48
2022-10-19T09:52:51.643Z,74.27
2022-10-19T09:55:30.230Z,74.48
2022-10-19T09:58:05.039Z,73.69
2022-10-19T10:00:39.566Z,72.52
2022-10-19T10:03:08.884Z,71.12
2022-10-19T10:05:39.061Z,70.59
2022-10-19T10:08:13.872Z,68.42
2022-10-19T10:10:44.961Z,67.56
2022-10-19T10:13:18.294Z,67.25
2022-10-19T10:15:55.887Z,67.51
2022-10-19T10:18:24.887Z,67.26
2022-10-19T10:21:13.016Z,67.55
2022-10-19T10:23:40.431Z,67.74
2022-10-19T10:26:17.062Z,68.10
2022-10-19T10:28:50.602Z,68.60
2022-10-19T10:31:20.708Z,68.88
2022-10-19T10:33:56.948Z,69.01
2022-10-19T10:36:28.207Z,69.13
2022-10-19T10:39:00.032Z,68.80
2022-10-19T10:41:29.936Z,68.86
2022-10-19T10:44:02.161Z,68.96
2022-10-19T10:46:38.540Z,69.18
2022-10-19T10:49:08.588Z,69.04
2022-10-19T10:51:44.062Z,68.60
2022-10-19T10:54:20.883Z,68.51
2022-10-19T10:56:56.047Z,68.62
2022-10-19T10:59:31.262Z,68.55
2022-10-19T11:02:03.543Z,68.80
2022-10-19T11:04:36.200Z,69.36
2022-10-19T11:07:11.811Z,69.09
2022-10-19T11:09:43.901Z,68.75
2022-10-19T11:12:15.163Z,68.48
2022-10-19T11:14:49.497Z,68.27
2022-10-19T11:17:21.147Z,68.15
2022-10-19T11:19:50.499Z,68.18
2022-10-19T11:22:27.455Z,67.48
2022-10-19T11:25:02.301Z,67.14
2022-10-19T11:27:44.115Z,66.66
2022-10-19T11:30:18.252Z,66.31
2022-10-19T11:32:59.655Z,65.43
2022-10-19T11:35:46.781Z,64.56
2022-10-19T11:38:43.584Z,63.03
2022-10-19T11:41:21.897Z,61.69
2022-10-19T11:43:57.876Z,60.37
2022-10-19T11:46:32.610Z,59.91
2022-10-19T11:49:12.311Z,59.05
2022-10-19T11:51:49.836Z,59.06
2022-10-19T11:54:36.258Z,58.10
2022-10-19T11:57:11.854Z,57.77
2022-10-19T11:59:55.692Z,57.85
2022-10-19T12:03:06.511Z,58.00
2022-10-19T12:05:43.373Z,58.55
2022-10-19T12:08:27.078Z,58.57
2022-10-19T12:11:05.685Z,58.93
2022-10-19T12:13:46.454Z,58.99
2022-10-19T12:16:15.995Z,59.35
2022-10-19T12:18:47.527Z,59.35
2022-10-19T12:21:21.118Z,59.28
2022-10-19T12:23:50.092Z,59.35
2022-10-19T12:26:21.286Z,59.38
2022-10-19T12:28:52.165Z,59.34
2022-10-19T12:31:20.434Z,59.54
2022-10-19T12:33:54.628Z,59.71
2022-10-19T12:36:33.025Z,59.44
2022-10-19T12:39:09.108Z,59.28
2022-10-19T12:41:44.626Z,58.82
2022-10-19T12:44:32.468Z,58.46
2022-10-19T12:47:10.035Z,58.51
2022-10-19T12:49:47.170Z,58.43
2022-10-19T12:52:12.987Z,57.85
2022-10-19T12:54:43.658Z,57.54
2022-10-19T12:57:27.414Z,57.32
2022-10-19T13:00:06.118Z,57.28
2022-10-19T13:02:36.271Z,57.24
2022-10-19T13:05:03.650Z,56.92
2022-10-19T13:07:39.057Z,56.54
2022-10-19T13:10:19.516Z,56.45
2022-10-19T13:12:48.646Z,56.20
2022-10-19T13:15:59.237Z,55.85
2022-10-19T13:19:08.545Z,55.88
2022-10-19T13:22:04.181Z,55.29
2022-10-19T13:24:37.080Z,55.33
2022-10-19T13:27:28.686Z,55.25
2022-10-19T13:29:56.241Z,55.73
2022-10-19T13:32:42.998Z,55.71
2022-10-19T13:35:30.577Z,55.66
2022-10-19T13:38:30.298Z,55.29
2022-10-19T13:41:06.113Z,55.09
2022-10-19T13:43:35.206Z,54.79
2022-10-19T13:46:08.698Z,54.53
2022-10-19T13:48:58.626Z,54.76
2022-10-19T13:51:33.756Z,54.31
2022-10-19T13:54:12.797Z,54.41
2022-10-19T13:57:00.000Z,54.56
2022-10-19T13:59:57.765Z,54.53
2022-10-19T14:02:57.384Z,54.94
2022-10-19T14:05:48.689Z,55.38
2022-10-19T14:08:29.892Z,56.13
2022-10-19T14:11:03.141Z,56.99
2022-10-19T14:13:31.232Z,57.39
2022-10-19T14:16:03.063Z,58.10
2022-10-19T14:18:32.309Z,59.05
2022-10-19T14:21:04.271Z,59.61
2022-10-19T14:23:33.121Z,60.38
2022-10-19T14:26:03.421Z,61.21
2022-10-19T14:28:32.631Z,61.75
2022-10-19T14:31:03.338Z,62.07
2022-10-19T14:33:33.792Z,62.55
2022-10-19T14:36:01.408Z,62.63
2022-10-19T14:38:35.195Z,62.12
2022-10-19T14:41:02.858Z,62.21
2022-10-19T14:43:32.164Z,62.12
2022-10-19T14:46:16.499Z,62.11
2022-10-19T14:48:46.304Z,62.23
2022-10-19T14:51:28.485Z,62.05
2022-10-19T14:53:59.218Z,62.20
2022-10-19T14:56:29.992Z,62.22
2022-10-19T14:59:01.192Z,62.14
2022-10-19T15:01:28.749Z,61.66
2022-10-19T15:03:56.353Z,61.42
2022-10-19T15:06:28.563Z,61.18
2022-10-19T15:08:59.589Z,61.11
2022-10-19T15:11:38.202Z,60.98
2022-10-19T15:14:10.384Z,60.80
2022-10-19T15:16:45.920Z,60.60
2022-10-19T15:19:30.030Z,60.82
2022-10-19T15:22:19.009Z,60.87
2022-10-19T15:25:02.249Z,60.97
2022-10-19T15:27:37.137Z,60.91
2022-10-19T15:30:25.014Z,61.16
2022-10-19T15:33:16.427Z,61.23
2022-10-19T15:35:45.986Z,61.24
2022-10-19T15:38:22.717Z,61.16
2022-10-19T15:40:53.451Z,61.09
2022-10-19T15:43:47.266Z,60.93
2022-10-19T15:46:26.248Z,60.68
2022-10-19T15:48:55.394Z,60.83
2022-10-19T15:51:43.683Z,61.07
2022-10-19T15:54:11.201Z,61.13
2022-10-19T15:56:39.887Z,61.36
2022-10-19T15:59:11.878Z,61.40
2022-10-19T16:01:39.259Z,61.50
2022-10-19T16:04:06.742Z,61.65
2022-10-19T16:06:37.169Z,61.55
2022-10-19T16:09:05.316Z,61.67
2022-10-19T16:11:33.671Z,61.87
2022-10-19T16:14:00.791Z,61.94
2022-10-19T16:16:30.020Z,62.08
2022-10-19T16:18:57.876Z,62.22
2022-10-19T16:21:28.676Z,62.25
2022-10-19T16:23:55.791Z,62.22
2022-10-19T16:26:23.406Z,62.47
2022-10-19T16:28:50.758Z,62.55
2022-10-19T16:31:18.860Z,62.66
2022-10-19T16:33:46.269Z,62.75
2022-10-19T16:36:14.230Z,62.95
2022-10-19T16:38:41.808Z,63.04
2022-10-19T16:41:11.462Z,63.08
2022-10-19T16:43:39.246Z,63.18
2022-10-19T16:46:07.280Z,63.42
2022-10-19T16:48:35.247Z,63.49
2022-10-19T16:51:38.042Z,63.58
2022-10-19T16:54:07.738Z,63.65
2022-10-19T16:56:36.590Z,63.58
2022-10-19T16:59:05.546Z,63.61
2022-10-19T17:01:34.311Z,63.74
2022-10-19T17:04:01.826Z,63.60
2022-10-19T17:06:30.164Z,63.67
2022-10-19T17:11:46.032Z,63.89
2022-10-19T17:14:14.554Z,64.06
2022-10-19T17:16:42.068Z,64.23
2022-10-19T17:19:10.364Z,64.36
2022-10-19T17:21:39.559Z,64.40
2022-10-19T17:24:08.713Z,64.49
2022-10-19T17:26:38.441Z,64.47
2022-10-19T17:29:05.987Z,64.56
2022-10-19T17:31:33.718Z,64.45
2022-10-19T17:34:02.060Z,64.61
2022-10-19T17:36:31.336Z,64.73
2022-10-19T17:38:59.772Z,64.71
2022-10-19T17:41:28.045Z,64.85
2022-10-19T17:43:55.679Z,64.83
2022-10-19T17:46:25.123Z,64.79
2022-10-19T17:48:52.423Z,64.89
2022-10-19T17:51:21.102Z,64.96
2022-10-19T17:53:49.635Z,65.14
2022-10-19T17:56:19.621Z,65.16
2022-10-19T17:58:47.933Z,65.21
2022-10-19T18:01:16.132Z,65.29
2022-10-19T18:03:43.823Z,65.28
2022-10-19T18:06:13.620Z,65.30
2022-10-19T18:08:43.079Z,65.28
2022-10-19T18:11:14.495Z,65.52
2022-10-19T18:13:42.354Z,65.46
2022-10-19T18:16:11.975Z,65.72
2022-10-19T18:18:42.016Z,65.67
2022-10-19T18:21:11.987Z,65.70
2022-10-19T18:23:39.174Z,65.68
2022-10-19T18:26:08.073Z,65.91
2022-10-19T18:28:35.804Z,65.87
2022-10-19T18:31:09.946Z,65.85
2022-10-19T18:33:38.237Z,65.75
2022-10-19T18:36:05.887Z,65.81
2022-10-19T18:38:33.233Z,65.72
2022-10-19T18:41:04.119Z,65.76
2022-10-19T18:43:31.397Z,65.89
2022-10-19T18:46:00.444Z,66.01
2022-10-19T18:48:29.248Z,66.11
2022-10-19T18:50:56.959Z,66.35
2022-10-19T18:53:25.531Z,66.39
2022-10-19T18:56:01.059Z,66.38
2022-10-19T18:58:30.529Z,66.49
2022-10-19T19:01:07.854Z,66.62
2022-10-19T19:03:35.593Z,66.70
2022-10-19T19:06:10.770Z,66.76
2022-10-19T19:08:38.716Z,67.03
2022-10-19T19:11:14.593Z,67.03
2022-10-19T19:13:43.110Z,67.05
2022-10-19T19:16:12.889Z,67.39
2022-10-19T19:18:40.205Z,67.34
2022-10-19T19:21:14.745Z,67.29
2022-10-19T19:23:42.014Z,67.59
2022-10-19T19:26:10.435Z,67.56
2022-10-19T19:28:40.733Z,67.74
2022-10-19T19:31:10.799Z,67.84
2022-10-19T19:33:41.983Z,68.01
2022-10-19T19:36:12.934Z,67.96
2022-10-19T19:38:40.567Z,68.07
2022-10-19T19:41:10.232Z,68.09
2022-10-19T19:43:38.897Z,68.16
2022-10-19T19:46:09.551Z,68.17
2022-10-19T19:48:37.174Z,68.48
2022-10-19T19:51:04.332Z,68.45
2022-10-19T19:53:31.572Z,68.58
2022-10-19T19:55:58.933Z,68.58
2022-10-19T19:58:26.088Z,68.66
2022-10-19T20:00:53.112Z,68.69
2022-10-19T20:03:20.161Z,68.71
2022-10-19T20:05:47.357Z,68.90
2022-10-19T20:08:15.124Z,68.91
2022-10-19T20:10:43.521Z,69.02
2022-10-19T20:13:10.987Z,69.22
2022-10-19T20:15:40.123Z,69.17
2022-10-19T20:18:07.873Z,69.19
2022-10-19T20:20:35.056Z,69.32
2022-10-19T20:23:02.186Z,69.50
2022-10-19T20:25:29.525Z,69.25
2022-10-19T20:27:56.628Z,69.43
2022-10-19T20:30:23.654Z,69.66
2022-10-19T20:32:54.145Z,69.77
2022-10-19T20:35:21.304Z,69.85
2022-10-19T20:37:51.363Z,69.93
2022-10-19T20:40:19.237Z,70.13
2022-10-19T20:42:46.469Z,70.22
2022-10-19T20:45:14.525Z,70.34
2022-10-19T20:47:41.846Z,70.30
2022-10-19T20:50:10.898Z,70.52
2022-10-19T20:52:38.535Z,70.54
2022-10-19T20:55:06.095Z,70.61
2022-10-19T20:57:33.351Z,70.82
2022-10-19T21:00:00.335Z,70.73
2022-10-19T21:02:27.649Z,70.94
2022-10-19T21:04:54.702Z,70.94
2022-10-19T21:07:21.815Z,71.10
2022-10-19T21:09:48.967Z,70.99
2022-10-19T21:12:16.842Z,71.24
2022-10-19T21:14:43.859Z,71.11
2022-10-19T21:17:10.840Z,71.31
2022-10-19T21:19:38.010Z,71.15
2022-10-19T21:22:06.361Z,71.41
2022-10-19T21:24:35.696Z,71.39
2022-10-19T21:27:05.864Z,71.42
2022-10-19T21:29:33.072Z,71.40
2022-10-19T21:32:00.594Z,71.51
2022-10-19T21:34:29.778Z,71.80
2022-10-19T21:36:57.123Z,71.66
2022-10-19T21:39:24.948Z,71.65
2022-10-19T21:41:52.585Z,71.54
2022-10-19T21:44:23.113Z,71.88
2022-10-19T21:46:51.867Z,71.79
2022-10-19T21:49:19.560Z,71.63
2022-10-19T21:51:50.003Z,71.68
2022-10-19T21:54:19.131Z,71.81
2022-10-19T21:56:47.819Z,71.83
2022-10-19T21:59:15.754Z,71.82
2022-10-19T22:01:43.246Z,71.89
2022-10-19T22:04:13.447Z,71.93
2022-10-19T22:06:40.845Z,71.84
2022-10-19T22:09:09.768Z,72.04
2022-10-19T22:11:37.476Z,71.99
2022-10-19T22:14:06.033Z,72.17
2022-10-19T22:16:35.167Z,71.93
2022-10-19T22:19:02.358Z,71.96
2022-10-19T22:21:31.064Z,71.94
2022-10-19T22:24:00.552Z,72.14
2022-10-19T22:26:29.766Z,72.22
2022-10-19T22:28:58.400Z,72.24
2022-10-19T22:31:26.531Z,72.25
2022-10-19T22:33:53.642Z,72.15
2022-10-19T22:36:21.140Z,72.30
2022-10-19T22:38:48.725Z,72.37
2022-10-19T22:41:18.151Z,72.48
2022-10-19T22:43:45.225Z,72.33
2022-10-19T22:46:12.414Z,72.46
2022-10-19T22:48:39.324Z,72.60
2022-10-19T22:51:06.492Z,72.32
2022-10-19T22:53:33.482Z,72.58
2022-10-19T22:56:00.777Z,72.51
2022-10-19T22:58:27.784Z,72.69
2022-10-19T23:01:06.601Z,72.54
2022-10-19T23:03:33.910Z,72.59
2022-10-19T23:06:01.375Z,72.75
2022-10-19T23:08:29.097Z,72.69
2022-10-19T23:10:56.171Z,72.72
2022-10-19T23:13:23.730Z,72.91
2022-10-19T23:15:51.714Z,72.59
2022-10-19T23:18:19.408Z,72.75
2022-10-19T23:20:53.492Z,72.75
2022-10-19T23:23:20.821Z,72.71
2022-10-19T23:25:57.458Z,72.69
2022-10-19T23:28:24.774Z,72.85
2022-10-19T23:30:51.921Z,73.00
2022-10-19T23:33:19.297Z,72.93
2022-10-19T23:35:46.358Z,73.06
2022-10-19T23:38:13.373Z,73.23
2022-10-19T23:40:40.304Z,73.43
2022-10-19T23:43:07.674Z,73.33
2022-10-19T23:45:34.894Z,73.38
2022-10-19T23:48:02.066Z,73.47
2022-10-19T23:50:29.140Z,73.32
2022-10-19T23:52:56.268Z,73.41
2022-10-19T23:55:23.657Z,73.48
2022-10-19T23:57:50.776Z,73.62
